Time;durP1;ratioP1;P1;durP2;ratioP2;P2;SDS_P1;SDS_P2;PMS_P1;PMS_P2;Temp;Humidity;BMP_temperature;BMP_pressure;BME280_temperature;BME280_humidity;BME280_pressure;Samples;Min_cycle;Max_cycle;Signal;HPM_P1;HPM_P2
2023/08/17 06:24:58;;;;;;;7.80;7.10;;;21.10;99.90;;;;;;8390267;27;20642;-68
2023/08/17 06:28:59;;;;;;;7.73;7.03;;;21.50;99.90;;;;;;8367809;28;20592;-63
2023/08/17 06:32:59;;;;;;;6.77;6.07;;;21.80;99.90;;;;;;8400783;28;20184;-62
2023/08/17 06:37:03;;;;;;;8.77;5.30;;;22.20;99.90;;;;;;8369389;28;20258;-70
2023/08/17 06:41:03;;;;;;;5.80;5.20;;;22.40;99.90;;;;;;8395932;28;20287;-66
2023/08/17 06:45:05;;;;;;;5.77;4.77;;;22.60;99.90;;;;;;8377254;28;20185;-67
2023/08/17 06:49:06;;;;;;;5.13;4.63;;;22.70;99.90;;;;;;8391265;28;20189;-66
2023/08/17 06:53:07;;;;;;;5.97;4.90;;;22.60;99.90;;;;;;8376440;28;20200;-66
2023/08/17 06:57:08;;;;;;;5.73;4.90;;;22.70;1.00;;;;;;8362730;28;20173;-63
2023/08/17 07:01:09;;;;;;;6.90;5.27;;;22.70;99.90;;;;;;8386082;28;20640;-65
2023/08/17 07:05:10;;;;;;;5.60;4.53;;;22.90;99.90;;;;;;8378902;28;20195;-67
2023/08/17 07:09:12;;;;;;;5.90;4.90;;;23.10;99.90;;;;;;8390164;28;20205;-65
2023/08/17 07:13:13;;;;;;;6.77;4.63;;;23.30;99.90;;;;;;8369790;28;20212;-67
2023/08/17 07:17:13;;;;;;;6.93;4.57;;;23.40;99.90;;;;;;8383076;28;20232;-68
2023/08/17 07:21:14;;;;;;;5.07;4.67;;;23.60;99.90;;;;;;8368487;28;20192;-67
2023/08/17 07:25:15;;;;;;;4.93;4.33;;;23.80;99.90;;;;;;8383730;28;20212;-65
2023/08/17 07:29:16;;;;;;;5.80;4.67;;;24.00;93.90;;;;;;8366419;28;20195;-68
2023/08/17 07:33:16;;;;;;;4.87;3.53;;;24.30;46.10;;;;;;8358660;28;20228;-66
2023/08/17 07:37:20;;;;;;;6.13;4.00;;;24.50;3.50;;;;;;8371809;28;20607;-66
2023/08/17 07:41:21;;;;;;;6.53;3.43;;;24.50;1.00;;;;;;8368980;28;20254;-65
2023/08/17 07:45:22;;;;;;;4.03;3.73;;;24.70;1.00;;;;;;8356009;28;21558;-66
2023/08/17 07:49:24;;;;;;;4.73;3.67;;;24.70;1.00;;;;;;8344156;28;20190;-70
2023/08/17 07:53:25;;;;;;;4.13;3.30;;;24.90;1.00;;;;;;8339271;28;20224;-63
2023/08/17 07:57:26;;;;;;;3.77;3.27;;;25.10;1.00;;;;;;8353740;28;20193;-70
2023/08/17 08:01:26;;;;;;;4.60;3.00;;;25.00;1.00;;;;;;8335052;28;20189;-65
2023/08/17 08:05:27;;;;;;;5.17;3.03;;;25.20;1.00;;;;;;8338869;28;20196;-68
2023/08/17 08:09:29;;;;;;;3.50;3.20;;;25.40;1.00;;;;;;8332122;28;20225;-66
2023/08/17 08:13:30;;;;;;;3.40;2.92;;;25.70;1.00;;;;;;8341739;28;20216;-71
2023/08/17 08:17:31;;;;;;;4.97;3.33;;;25.60;1.00;;;;;;8355059;28;20182;-71
2023/08/17 08:21:32;;;;;;;3.08;2.75;;;25.60;1.00;;;;;;8351919;28;20549;-69
2023/08/17 08:25:32;;;;;;;3.30;3.00;;;25.70;1.00;;;;;;8351881;28;20847;-71
2023/08/17 08:29:34;;;;;;;6.07;3.35;;;25.80;1.00;;;;;;8353303;28;20204;-63
2023/08/17 08:33:35;;;;;;;4.97;3.08;;;25.70;1.00;;;;;;8349184;28;20369;-66
2023/08/17 08:37:35;;;;;;;4.13;2.90;;;25.70;1.00;;;;;;8356541;28;20178;-68
2023/08/17 08:41:38;;;;;;;4.38;2.95;;;25.80;1.00;;;;;;8370488;28;20217;-67
2023/08/17 08:45:44;;;;;;;4.88;2.95;;;25.90;1.00;;;;;;8338219;28;20182;-69
2023/08/17 08:49:59;;;;;;;3.97;2.90;;;25.90;1.00;;;;;;8340762;28;20186;-65
2023/08/17 08:54:09;;;;;;;3.95;2.95;;;25.80;1.00;;;;;;8354296;28;20209;-63
2023/08/17 08:58:10;;;;;;;3.38;2.63;;;26.00;1.00;;;;;;8351769;28;20189;-65
2023/08/17 09:02:15;;;;;;;3.75;2.88;;;26.40;1.00;;;;;;8352229;28;20284;-66
2023/08/17 09:06:17;;;;;;;3.58;2.95;;;27.10;1.00;;;;;;8332051;28;20190;-66
2023/08/17 09:10:18;;;;;;;4.97;2.83;;;27.40;1.00;;;;;;8353891;28;20232;-70
2023/08/17 09:14:19;;;;;;;2.90;2.40;;;27.20;1.00;;;;;;8353586;28;20217;-70
2023/08/17 09:18:20;;;;;;;4.47;2.80;;;27.20;1.00;;;;;;8335661;28;20181;-68
2023/08/17 09:22:26;;;;;;;3.13;2.70;;;27.50;1.00;;;;;;8346343;28;20201;-67
2023/08/17 09:26:32;;;;;;;4.22;2.80;;;27.70;1.00;;;;;;8356076;28;20256;-70
2023/08/17 09:30:32;;;;;;;3.08;2.78;;;28.10;1.00;;;;;;8341124;28;20552;-66
2023/08/17 09:34:33;;;;;;;2.63;2.40;;;28.50;1.00;;;;;;8354291;28;20212;-67
2023/08/17 09:38:34;;;;;;;3.55;3.03;;;28.30;1.00;;;;;;8331627;28;20669;-69
2023/08/17 09:42:35;;;;;;;3.63;2.72;;;28.30;1.00;;;;;;8336487;28;20189;-69
2023/08/17 09:46:36;;;;;;;5.38;3.10;;;28.00;1.00;;;;;;8332918;28;20219;-72
2023/08/17 09:50:37;;;;;;;3.30;3.03;;;27.80;1.00;;;;;;8351491;28;20187;-66
2023/08/17 09:54:38;;;;;;;4.82;3.20;;;27.70;1.00;;;;;;8351222;28;20209;-68
2023/08/17 09:58:39;;;;;;;3.70;2.80;;;27.70;1.00;;;;;;8341144;28;20190;-67
2023/08/17 10:02:40;;;;;;;3.50;3.15;;;27.40;1.00;;;;;;8344959;28;20185;-68
2023/08/17 10:06:42;;;;;;;3.90;3.05;;;27.50;1.00;;;;;;8326975;28;20220;-70
2023/08/17 10:10:45;;;;;;;3.20;2.90;;;27.40;1.00;;;;;;8344159;28;20209;-67
2023/08/17 10:14:51;;;;;;;3.63;3.33;;;27.40;1.00;;;;;;8348965;28;20206;-67
2023/08/17 10:19:06;;;;;;;3.65;3.35;;;27.30;1.00;;;;;;8358868;28;20204;-68
2023/08/17 10:23:19;;;;;;;3.40;3.10;;;27.20;1.00;;;;;;8334318;28;20201;-66
2023/08/17 10:27:21;;;;;;;4.05;3.65;;;26.90;1.00;;;;;;8332974;28;20186;-69
2023/08/17 10:31:22;;;;;;;3.90;3.17;;;26.80;1.00;;;;;;8348025;28;20190;-70
2023/08/17 10:35:23;;;;;;;3.67;3.38;;;26.70;1.00;;;;;;8323673;28;20235;-68
2023/08/17 10:39:25;;;;;;;6.65;3.42;;;26.80;1.00;;;;;;8347228;28;20182;-66
2023/08/17 10:43:33;;;;;;;4.47;3.63;;;26.70;1.00;;;;;;8343097;28;20185;-67
2023/08/17 10:47:35;;;;;;;5.65;3.40;;;26.80;1.00;;;;;;8346851;28;20182;-66
2023/08/17 10:51:36;;;;;;;3.83;3.20;;;26.90;1.00;;;;;;8346217;28;20271;-68
2023/08/17 10:55:42;;;;;;;4.22;3.30;;;27.10;1.00;;;;;;8326214;28;20182;-66
2023/08/17 10:59:43;;;;;;;3.63;3.08;;;27.30;1.00;;;;;;8364878;28;20319;-66
2023/08/17 11:03:50;;;;;;;6.18;3.72;;;27.20;1.00;;;;;;8345845;28;20196;-71
2023/08/17 11:07:51;;;;;;;3.85;3.55;;;27.00;1.00;;;;;;8358814;28;20193;-69
2023/08/17 11:11:55;;;;;;;4.60;3.50;;;26.90;1.00;;;;;;8342369;28;20297;-67
2023/08/17 11:15:55;;;;;;;3.92;3.63;;;26.80;1.00;;;;;;8329037;28;20516;-65
2023/08/17 11:19:56;;;;;;;6.20;3.58;;;26.90;1.00;;;;;;8337880;28;20178;-69
2023/08/17 11:23:57;;;;;;;4.50;4.10;;;26.90;1.00;;;;;;8355170;28;20197;-69
2023/08/17 11:28:00;;;;;;;5.35;3.75;;;27.00;1.00;;;;;;8370490;28;20196;-66
2023/08/17 11:32:00;;;;;;;5.05;3.60;;;27.20;1.00;;;;;;8344052;28;20308;-68
2023/08/17 11:36:05;;;;;;;4.45;4.00;;;27.50;1.00;;;;;;8342059;28;20189;-65
2023/08/17 11:40:08;;;;;;;4.28;3.88;;;27.60;1.00;;;;;;8355114;28;20238;-67
2023/08/17 11:44:09;;;;;;;5.68;4.30;;;27.60;1.00;;;;;;8353747;28;20193;-66
2023/08/17 11:48:10;;;;;;;4.18;3.72;;;27.60;1.00;;;;;;8355096;28;20525;-68
2023/08/17 11:52:11;;;;;;;3.95;3.58;;;27.60;1.00;;;;;;8338488;28;20232;-67
2023/08/17 11:56:13;;;;;;;4.13;3.67;;;27.60;1.00;;;;;;8365393;28;20190;-65
2023/08/17 12:00:22;;;;;;;5.28;3.55;;;27.60;1.00;;;;;;8362064;28;20272;-68
2023/08/17 12:04:24;;;;;;;3.25;3.05;;;27.80;1.00;;;;;;8354354;28;20186;-67
2023/08/17 12:08:25;;;;;;;4.38;3.97;;;27.90;1.00;;;;;;8352961;28;20255;-66
2023/08/17 12:12:27;;;;;;;4.38;3.88;;;28.20;1.00;;;;;;8353096;28;21636;-69
2023/08/17 12:16:28;;;;;;;4.53;4.13;;;28.20;1.00;;;;;;8359200;28;20858;-67
2023/08/17 12:20:30;;;;;;;5.50;3.80;;;28.30;1.00;;;;;;8339991;28;20182;-68
2023/08/17 12:24:31;;;;;;;3.90;3.60;;;28.30;1.00;;;;;;8355101;28;20267;-67
2023/08/17 12:28:32;;;;;;;4.47;3.67;;;28.40;1.00;;;;;;8345428;28;20185;-70
2023/08/17 12:32:33;;;;;;;5.60;3.95;;;28.50;1.00;;;;;;8340782;28;20223;-65
2023/08/17 12:36:35;;;;;;;4.55;3.83;;;28.80;1.00;;;;;;8339663;28;20273;-66
2023/08/17 12:40:36;;;;;;;4.25;3.85;;;28.80;1.00;;;;;;8333503;28;20218;-64
2023/08/17 12:44:37;;;;;;;5.68;3.65;;;28.90;1.00;;;;;;8341993;28;20192;-63
2023/08/17 12:48:38;;;;;;;4.43;4.05;;;29.10;1.00;;;;;;8337220;28;20196;-65
2023/08/17 12:52:39;;;;;;;5.10;3.85;;;29.30;1.00;;;;;;8355670;28;20265;-67
2023/08/17 12:56:40;;;;;;;4.05;3.65;;;29.10;1.00;;;;;;8339271;28;20186;-69
2023/08/17 13:00:41;;;;;;;4.70;4.13;;;29.00;99.90;;;;;;8354085;28;20743;-67
2023/08/17 13:04:42;;;;;;;4.32;3.92;;;29.00;99.90;;;;;;8351491;28;20417;-67
2023/08/17 13:08:42;;;;;;;4.15;3.75;;;28.90;99.90;;;;;;8340755;28;20205;-73
2023/08/17 13:12:43;;;;;;;4.32;3.53;;;28.90;99.90;;;;;;8336866;28;20293;-68
2023/08/17 13:16:44;;;;;;;4.00;3.70;;;28.90;99.90;;;;;;8365074;28;20185;-66
2023/08/17 13:20:44;;;;;;;3.92;3.53;;;28.90;99.90;;;;;;8366372;28;20189;-68
2023/08/17 13:24:45;;;;;;;5.45;4.10;;;28.90;99.90;;;;;;8353433;28;20202;-66
2023/08/17 13:28:46;;;;;;;4.15;3.85;;;29.00;99.90;;;;;;8340289;28;20190;-66
2023/08/17 13:32:47;;;;;;;4.80;4.30;;;28.90;99.90;;;;;;8345737;28;21432;-67
2023/08/17 13:36:47;;;;;;;4.32;3.97;;;28.90;99.90;;;;;;8353105;28;20246;-67
2023/08/17 13:40:48;;;;;;;5.47;4.07;;;29.00;99.90;;;;;;8337030;28;20182;-68
2023/08/17 13:44:49;;;;;;;4.75;4.35;;;29.00;99.90;;;;;;8348447;28;20203;-64
2023/08/17 13:48:49;;;;;;;4.43;4.03;;;29.20;99.90;;;;;;8353191;28;20205;-65
2023/08/17 13:52:50;;;;;;;4.55;4.15;;;29.30;99.90;;;;;;8354902;28;20208;-63
2023/08/17 13:56:51;;;;;;;4.43;4.10;;;29.50;99.90;;;;;;8342473;28;20198;-67
2023/08/17 14:00:52;;;;;;;4.85;3.95;;;29.70;99.90;;;;;;8350451;28;20182;-63
2023/08/17 14:04:52;;;;;;;4.22;3.60;;;29.70;99.90;;;;;;8348100;28;20213;-67
2023/08/17 14:08:53;;;;;;;4.22;3.92;;;29.70;99.90;;;;;;8342402;28;20216;-65
2023/08/17 14:12:54;;;;;;;4.18;3.78;;;29.70;99.90;;;;;;8349258;28;20311;-64
2023/08/17 14:16:55;;;;;;;4.38;3.90;;;29.70;99.90;;;;;;8344006;28;20216;-63
2023/08/17 14:20:56;;;;;;;4.32;3.78;;;29.60;99.90;;;;;;8337717;28;20185;-70
2023/08/17 14:24:56;;;;;;;4.13;3.75;;;29.50;99.90;;;;;;8341664;28;20193;-65
2023/08/17 14:28:57;;;;;;;3.97;3.67;;;29.50;99.90;;;;;;8352212;28;20185;-68
2023/08/17 14:32:58;;;;;;;4.80;3.85;;;29.40;99.90;;;;;;8339201;28;20267;-68
2023/08/17 14:36:58;;;;;;;6.57;3.75;;;29.30;99.90;;;;;;8352860;28;20189;-64
2023/08/17 14:40:59;;;;;;;4.35;4.05;;;29.30;99.90;;;;;;8355673;28;20178;-68
2023/08/17 14:45:00;;;;;;;4.68;4.18;;;29.30;99.90;;;;;;8353668;28;20189;-63
2023/08/17 14:49:01;;;;;;;4.18;3.88;;;29.30;99.90;;;;;;8357929;28;20272;-64
2023/08/17 14:53:03;;;;;;;4.30;4.00;;;29.40;99.90;;;;;;8335047;28;20286;-68
2023/08/17 14:57:04;;;;;;;4.47;4.07;;;29.50;99.90;;;;;;8339076;28;20192;-69
2023/08/17 15:01:04;;;;;;;4.80;4.40;;;29.60;99.90;;;;;;8340653;28;20185;-66
2023/08/17 15:05:06;;;;;;;4.75;4.35;;;29.60;99.90;;;;;;8341012;28;20642;-63
2023/08/17 15:09:07;;;;;;;4.57;4.18;;;29.50;99.90;;;;;;8351831;28;20201;-66
2023/08/17 15:13:07;;;;;;;4.55;4.15;;;29.40;99.90;;;;;;8359865;28;20217;-68
2023/08/17 15:17:12;;;;;;;4.13;3.83;;;29.50;99.90;;;;;;8358400;28;20305;-67
2023/08/17 15:21:13;;;;;;;9.13;4.47;;;29.60;99.90;;;;;;8340567;28;20186;-67
2023/08/17 15:25:13;;;;;;;6.03;4.28;;;29.60;99.90;;;;;;8345635;28;20197;-66
2023/08/17 15:29:14;;;;;;;6.00;4.50;;;29.50;99.90;;;;;;8342146;28;20181;-68
2023/08/17 15:33:15;;;;;;;5.18;4.65;;;29.40;99.90;;;;;;8358065;28;20236;-69
2023/08/17 15:37:16;;;;;;;4.82;4.43;;;29.40;99.90;;;;;;8363567;28;20192;-67
2023/08/17 15:41:18;;;;;;;7.68;4.70;;;29.30;99.90;;;;;;8366204;28;20177;-68
2023/08/17 15:45:20;;;;;;;6.15;4.93;;;29.30;99.90;;;;;;8344614;28;20201;-70
2023/08/17 15:49:21;;;;;;;4.18;3.88;;;29.30;99.90;;;;;;8360583;28;20182;-66
2023/08/17 15:53:22;;;;;;;4.95;4.22;;;29.40;99.90;;;;;;8353526;28;20218;-66
2023/08/17 15:57:24;;;;;;;5.68;4.57;;;29.30;99.90;;;;;;8354582;28;20272;-68
2023/08/17 16:01:24;;;;;;;9.30;4.45;;;29.20;99.90;;;;;;8344423;28;20189;-66
2023/08/17 16:05:26;;;;;;;4.38;3.92;;;29.00;99.90;;;;;;8359900;28;20238;-71
2023/08/17 16:09:26;;;;;;;4.90;4.50;;;28.80;99.90;;;;;;8344699;28;20208;-64
2023/08/17 16:13:29;;;;;;;5.18;4.68;;;28.70;99.90;;;;;;8344515;28;20205;-68
2023/08/17 16:17:30;;;;;;;5.07;4.57;;;28.50;99.90;;;;;;8358818;28;20192;-63
2023/08/17 16:21:31;;;;;;;5.47;4.50;;;28.40;99.90;;;;;;8337185;28;20221;-63
2023/08/17 16:25:33;;;;;;;5.07;4.53;;;28.40;99.90;;;;;;8359859;28;20273;-66
2023/08/17 16:29:33;;;;;;;5.63;5.13;;;28.20;99.90;;;;;;8332644;28;21615;-65
2023/08/17 16:33:34;;;;;;;4.95;4.45;;;28.10;99.90;;;;;;8340293;28;20445;-65
2023/08/17 16:37:35;;;;;;;5.82;5.15;;;27.90;99.90;;;;;;8338880;28;20281;-65
2023/08/17 16:41:36;;;;;;;5.72;5.18;;;27.80;99.90;;;;;;8353849;28;20244;-65
2023/08/17 16:45:37;;;;;;;6.90;4.85;;;27.60;1.00;;;;;;8341812;28;20178;-61
2023/08/17 16:49:37;;;;;;;6.07;4.80;;;27.60;1.00;;;;;;8357403;28;20189;-63
2023/08/17 16:53:39;;;;;;;6.50;4.55;;;27.60;1.00;;;;;;8343900;28;20239;-65
2023/08/17 16:57:39;;;;;;;4.90;3.97;;;27.50;1.00;;;;;;8353671;28;20181;-69
2023/08/17 17:01:40;;;;;;;4.32;3.55;;;27.40;1.00;;;;;;8352967;28;20188;-70
2023/08/17 17:05:41;;;;;;;4.15;3.75;;;27.30;99.90;;;;;;8342160;28;20174;-66
2023/08/17 17:09:44;;;;;;;3.88;3.40;;;27.20;99.90;;;;;;8357176;28;20206;-65
2023/08/17 17:13:44;;;;;;;3.58;3.15;;;27.10;99.90;;;;;;8355307;28;20201;-69
2023/08/17 17:17:45;;;;;;;2.92;2.60;;;27.20;99.90;;;;;;8332778;28;20244;-66
2023/08/17 17:21:46;;;;;;;5.22;3.63;;;27.00;99.90;;;;;;8331214;28;20255;-66
2023/08/17 17:25:47;;;;;;;4.70;3.50;;;26.60;99.90;;;;;;8334500;28;20186;-67
2023/08/17 17:29:48;;;;;;;4.82;3.70;;;26.00;1.00;;;;;;8337198;28;20197;-64
2023/08/17 17:33:49;;;;;;;5.95;3.85;;;25.50;1.00;;;;;;8337864;28;20210;-64
2023/08/17 17:37:49;;;;;;;3.97;3.30;;;25.00;1.00;;;;;;8367178;28;20215;-66
2023/08/17 17:41:51;;;;;;;7.30;3.85;;;24.60;1.00;;;;;;8349003;28;20209;-64
2023/08/17 17:45:52;;;;;;;8.10;5.20;;;24.30;1.00;;;;;;8364309;28;20184;-65
2023/08/17 17:49:53;;;;;;;4.63;4.13;;;24.10;1.00;;;;;;8373680;28;20188;-64
2023/08/17 17:53:55;;;;;;;9.73;6.83;;;23.70;1.00;;;;;;8374778;28;20209;-63
2023/08/17 17:57:56;;;;;;;9.03;7.60;;;23.40;48.40;;;;;;8347059;28;20260;-64
2023/08/17 18:01:57;;;;;;;8.53;7.27;;;22.90;99.90;;;;;;8349589;28;20193;-63
2023/08/17 18:05:57;;;;;;;8.83;6.97;;;22.50;99.90;;;;;;8352956;28;20255;-63
2023/08/17 18:10:00;;;;;;;10.10;7.00;;;22.30;99.90;;;;;;8358310;28;20215;-62
2023/08/17 18:14:02;;;;;;;9.13;6.93;;;22.10;1.00;;;;;;8357827;28;20245;-63
2023/08/17 18:18:04;;;;;;;11.30;6.90;;;22.00;1.00;;;;;;8344550;28;20632;-64
2023/08/17 18:22:04;;;;;;;7.20;6.43;;;21.90;33.60;;;;;;8362524;28;20209;-63
2023/08/17 18:26:05;;;;;;;16.57;12.80;;;21.90;99.90;;;;;;8365147;28;20193;-63
2023/08/17 18:30:10;;;;;;;14.90;11.80;;;21.80;99.90;;;;;;8359211;28;20217;-65
2023/08/17 18:34:11;;;;;;;10.23;8.30;;;21.70;99.90;;;;;;8348212;28;20234;-65
2023/08/17 18:38:12;;;;;;;9.33;7.20;;;21.60;99.90;;;;;;8333227;28;20185;-64
2023/08/17 18:42:13;;;;;;;7.87;6.73;;;21.50;99.90;;;;;;8339033;28;20239;-63
2023/08/17 18:46:14;;;;;;;7.37;6.73;;;21.30;1.00;;;;;;8358951;28;20280;-63
2023/08/17 18:50:15;;;;;;;6.83;6.03;;;21.10;99.90;;;;;;8338909;28;20225;-63
2023/08/17 18:54:16;;;;;;;6.63;6.00;;;20.90;99.90;;;;;;8340231;28;20489;-63
2023/08/17 18:58:19;;;;;;;6.40;5.83;;;20.80;99.90;;;;;;8350342;28;20181;-62
2023/08/17 19:02:20;;;;;;;6.33;5.73;;;20.70;1.00;;;;;;8355113;28;20247;-63
2023/08/17 19:06:21;;;;;;;6.73;6.00;;;20.60;1.00;;;;;;8337408;28;20185;-63
2023/08/17 19:10:22;;;;;;;6.57;5.73;;;20.50;99.90;;;;;;8344277;28;20205;-63
2023/08/17 19:14:22;;;;;;;8.70;7.03;;;20.40;99.90;;;;;;8354030;28;20558;-63
2023/08/17 19:18:23;;;;;;;7.90;6.87;;;20.40;99.90;;;;;;8341766;28;20231;-63
2023/08/17 19:22:24;;;;;;;10.23;7.10;;;20.30;99.90;;;;;;8336694;28;20220;-63
2023/08/17 19:26:25;;;;;;;6.83;6.13;;;20.20;99.90;;;;;;8334731;28;20185;-63
2023/08/17 19:30:27;;;;;;;6.70;5.60;;;20.10;99.90;;;;;;8353085;28;20304;-65
2023/08/17 19:34:27;;;;;;;7.40;6.20;;;20.00;99.90;;;;;;8372792;28;20244;-65
2023/08/17 19:38:28;;;;;;;7.57;6.90;;;20.00;99.90;;;;;;8354496;28;20178;-63
2023/08/17 19:42:29;;;;;;;6.90;5.80;;;19.90;99.90;;;;;;8358504;28;20189;-63
2023/08/17 19:46:31;;;;;;;6.87;6.17;;;19.80;99.90;;;;;;8355473;28;20495;-63
2023/08/17 19:50:31;;;;;;;6.07;5.50;;;19.70;99.90;;;;;;8343741;28;20192;-63
2023/08/17 19:54:32;;;;;;;6.47;5.43;;;19.60;1.00;;;;;;8352122;28;20210;-63
2023/08/17 19:58:33;;;;;;;5.63;5.07;;;19.50;99.90;;;;;;8353296;28;20185;-62
2023/08/17 20:02:34;;;;;;;5.57;5.10;;;19.30;99.90;;;;;;8366576;28;20221;-62
2023/08/17 20:06:35;;;;;;;5.57;5.07;;;19.20;93.40;;;;;;8349898;28;20186;-64
2023/08/17 20:10:36;;;;;;;6.10;5.60;;;19.10;1.00;;;;;;8369002;28;20209;-62
2023/08/17 20:14:38;;;;;;;6.60;6.00;;;19.00;95.90;;;;;;8372979;28;20213;-63
2023/08/17 20:18:39;;;;;;;6.67;6.13;;;19.00;99.90;;;;;;8348779;28;20193;-65
2023/08/17 20:22:40;;;;;;;6.80;6.10;;;19.00;99.90;;;;;;8365514;28;20197;-64
2023/08/17 20:26:42;;;;;;;6.90;6.20;;;19.10;99.90;;;;;;8355365;28;20247;-64
2023/08/17 20:30:46;;;;;;;7.87;6.93;;;19.10;99.90;;;;;;8367379;28;20209;-65
2023/08/17 20:34:47;;;;;;;6.90;6.20;;;19.10;99.90;;;;;;8348404;28;20208;-62
2023/08/17 20:38:48;;;;;;;7.17;6.47;;;19.10;99.90;;;;;;8364798;28;20178;-63
2023/08/17 20:42:49;;;;;;;6.97;6.33;;;19.10;99.90;;;;;;8351968;28;20185;-62
2023/08/17 20:46:50;;;;;;;8.70;6.07;;;19.10;99.90;;;;;;8364720;28;20200;-62
2023/08/17 20:50:51;;;;;;;7.30;6.70;;;19.00;99.90;;;;;;8380769;28;20196;-63
2023/08/17 20:54:52;;;;;;;6.53;6.03;;;19.00;70.80;;;;;;8352065;28;20301;-63
2023/08/17 20:58:53;;;;;;;6.90;6.20;;;18.90;99.90;;;;;;8366673;28;20530;-63
2023/08/17 21:02:55;;;;;;;6.57;5.90;;;18.90;99.90;;;;;;8355609;28;20181;-62
2023/08/17 21:06:56;;;;;;;6.40;5.80;;;18.80;99.90;;;;;;8349806;28;20231;-62
2023/08/17 21:10:57;;;;;;;6.50;5.73;;;18.70;99.90;;;;;;8368750;28;20269;-63
2023/08/17 21:14:57;;;;;;;6.77;6.17;;;18.60;99.90;;;;;;8349476;28;20233;-64
2023/08/17 21:19:00;;;;;;;7.37;6.67;;;18.60;99.90;;;;;;8365003;28;20182;-62
2023/08/17 21:23:00;;;;;;;7.57;6.87;;;18.60;99.90;;;;;;8358064;28;20194;-68
2023/08/17 21:27:01;;;;;;;6.70;6.17;;;18.50;99.90;;;;;;8358513;28;20197;-65
2023/08/17 21:31:03;;;;;;;7.87;6.57;;;18.50;99.90;;;;;;8338415;28;20181;-66
2023/08/17 21:35:05;;;;;;;6.47;5.87;;;18.50;99.90;;;;;;8339999;28;20216;-67
2023/08/17 21:39:05;;;;;;;6.93;6.17;;;18.50;99.90;;;;;;8361798;28;20185;-66
2023/08/17 21:43:06;;;;;;;6.23;5.53;;;18.40;99.90;;;;;;8342342;28;20268;-65
2023/08/17 21:47:07;;;;;;;6.03;5.53;;;18.40;99.90;;;;;;8358178;28;20216;-65
2023/08/17 21:51:08;;;;;;;6.17;5.57;;;18.40;99.90;;;;;;8341929;28;20193;-65
2023/08/17 21:55:09;;;;;;;6.63;5.97;;;18.30;99.90;;;;;;8360369;28;20220;-65
2023/08/17 21:59:12;;;;;;;6.53;5.93;;;18.30;99.90;;;;;;8358370;28;20190;-64
2023/08/17 22:03:14;;;;;;;8.70;6.80;;;18.20;99.90;;;;;;8336741;28;20274;-65
2023/08/17 22:07:15;;;;;;;6.70;6.13;;;18.20;99.90;;;;;;8343029;28;20194;-65
2023/08/17 22:11:15;;;;;;;9.33;7.27;;;18.20;99.90;;;;;;8356356;28;20216;-65
2023/08/17 22:15:19;;;;;;;7.50;6.80;;;18.20;99.90;;;;;;8345204;28;20588;-65
2023/08/17 22:19:20;;;;;;;9.00;6.70;;;18.20;99.90;;;;;;8356387;28;20551;-65
2023/08/17 22:23:21;;;;;;;7.17;6.47;;;18.20;99.90;;;;;;8340362;28;20329;-65
2023/08/17 22:27:21;;;;;;;8.07;7.27;;;18.10;99.90;;;;;;8356410;28;21992;-65
2023/08/17 22:31:22;;;;;;;6.93;6.33;;;18.10;99.90;;;;;;8341220;28;20190;-65
2023/08/17 22:35:23;;;;;;;6.93;6.33;;;18.20;99.90;;;;;;8360698;28;20214;-65
2023/08/17 22:39:24;;;;;;;9.03;6.43;;;18.20;99.90;;;;;;8339419;28;20193;-65
2023/08/17 22:43:25;;;;;;;7.27;6.57;;;18.30;99.90;;;;;;8341788;28;20200;-66
2023/08/17 22:47:25;;;;;;;7.37;6.67;;;18.30;99.90;;;;;;8369195;28;20206;-66
2023/08/17 22:51:26;;;;;;;11.13;7.50;;;18.30;99.90;;;;;;8339087;28;20322;-69
2023/08/17 22:55:27;;;;;;;7.63;6.63;;;18.30;99.90;;;;;;8356740;28;20213;-67
2023/08/17 22:59:28;;;;;;;8.20;7.40;;;18.30;99.90;;;;;;8344234;28;20192;-65
2023/08/17 23:03:29;;;;;;;8.87;8.07;;;18.30;99.90;;;;;;8330915;28;20222;-66
2023/08/17 23:07:30;;;;;;;8.07;7.37;;;18.40;99.90;;;;;;8338802;28;20190;-66
2023/08/17 23:11:31;;;;;;;8.17;7.37;;;18.50;99.90;;;;;;8364883;28;20292;-66
2023/08/17 23:15:32;;;;;;;10.87;7.80;;;18.50;99.90;;;;;;8358353;28;20217;-66
2023/08/17 23:19:32;;;;;;;7.33;6.63;;;18.50;99.90;;;;;;8349973;28;20189;-65
2023/08/17 23:23:33;;;;;;;7.93;7.13;;;18.40;99.90;;;;;;8360742;28;20210;-65
2023/08/17 23:27:34;;;;;;;7.00;6.40;;;18.40;99.90;;;;;;8359663;28;20254;-65
2023/08/17 23:31:34;;;;;;;9.87;8.10;;;18.40;99.90;;;;;;8361474;28;20185;-65
2023/08/17 23:35:38;;;;;;;9.63;8.60;;;18.40;99.90;;;;;;8360151;28;20197;-65
2023/08/17 23:39:39;;;;;;;9.90;7.93;;;18.50;99.90;;;;;;8351904;28;20250;-63
2023/08/17 23:43:39;;;;;;;8.60;7.77;;;18.50;99.90;;;;;;8342602;28;20182;-65
2023/08/17 23:47:40;;;;;;;8.97;8.07;;;18.50;99.90;;;;;;8366903;28;20276;-63
2023/08/17 23:51:41;;;;;;;8.80;7.93;;;18.40;99.90;;;;;;8363774;28;20510;-63
2023/08/17 23:55:42;;;;;;;8.07;7.30;;;18.40;99.90;;;;;;8352531;28;20196;-65
2023/08/17 23:59:43;;;;;;;8.27;7.47;;;18.40;99.90;;;;;;8364803;28;20215;-63
